createdAt,value
2019-02-22T00:00:34.846Z,10.04
2019-02-22T00:04:39.759Z,10.09
2019-02-22T00:08:44.653Z,10.10
2019-02-22T00:12:49.564Z,10.06
2019-02-22T00:16:54.488Z,10.08
2019-02-22T00:21:00.366Z,10.10
2019-02-22T00:25:06.107Z,10.14
2019-02-22T00:29:11.018Z,10.15
2019-02-22T00:33:15.926Z,10.16
2019-02-22T00:37:20.900Z,10.16
2019-02-22T00:41:25.750Z,10.17
2019-02-22T00:45:30.647Z,10.17
2019-02-22T00:49:35.564Z,10.17
2019-02-22T00:53:40.472Z,10.18
2019-02-22T00:57:45.386Z,10.23
2019-02-22T01:01:50.302Z,10.27
2019-02-22T01:05:55.202Z,10.25
2019-02-22T01:10:00.378Z,10.24
2019-02-22T01:14:05.321Z,10.18
2019-02-22T01:18:10.221Z,10.18
2019-02-22T01:22:15.113Z,10.16
2019-02-22T01:26:20.018Z,10.12
2019-02-22T01:30:24.933Z,10.08
2019-02-22T01:34:29.854Z,10.03
2019-02-22T01:38:35.739Z,9.92
2019-02-22T01:42:40.631Z,9.87
2019-02-22T01:46:45.533Z,9.78
2019-02-22T01:50:50.435Z,9.77
2019-02-22T01:54:55.340Z,9.76
2019-02-22T01:59:00.246Z,9.75
2019-02-22T02:03:05.151Z,9.77
2019-02-22T02:07:10.115Z,9.79
2019-02-22T02:11:15.022Z,9.83
2019-02-22T02:15:19.933Z,9.83
2019-02-22T02:19:24.848Z,9.87
2019-02-22T02:23:29.735Z,9.88
2019-02-22T02:27:34.636Z,9.87
2019-02-22T02:31:39.542Z,9.86
2019-02-22T02:35:44.440Z,9.86
2019-02-22T02:39:49.351Z,9.90
2019-02-22T02:43:54.237Z,9.89
2019-02-22T02:47:59.142Z,9.90
2019-02-22T02:52:04.047Z,9.90
2019-02-22T02:56:08.957Z,9.92
2019-02-22T03:00:13.852Z,9.92
2019-02-22T03:04:18.761Z,9.90
2019-02-22T03:08:25.302Z,9.90
2019-02-22T03:12:30.202Z,9.89
2019-02-22T03:16:35.113Z,9.88
2019-02-22T03:20:40.007Z,9.90
2019-02-22T03:24:44.909Z,9.89
2019-02-22T03:28:49.823Z,9.89
2019-02-22T03:32:54.721Z,9.92
2019-02-22T03:36:59.620Z,9.89
2019-02-22T03:41:04.542Z,9.94
2019-02-22T03:45:09.723Z,9.96
2019-02-22T03:49:14.626Z,10.06
2019-02-22T03:53:24.233Z,10.08
2019-02-22T03:57:29.155Z,10.09
2019-02-22T04:01:34.055Z,10.06
2019-02-22T04:05:38.950Z,10.06
2019-02-22T04:09:43.864Z,10.05
2019-02-22T04:13:48.767Z,10.06
2019-02-22T04:17:53.683Z,10.06
2019-02-22T04:21:59.526Z,10.08
2019-02-22T04:26:04.501Z,10.11
2019-02-22T04:30:10.678Z,10.15
2019-02-22T04:34:15.590Z,10.15
2019-02-22T04:38:20.508Z,10.18
2019-02-22T04:42:25.410Z,10.21
2019-02-22T04:46:30.309Z,10.24
2019-02-22T04:50:35.799Z,10.23
2019-02-22T04:54:40.716Z,10.17
2019-02-22T04:58:45.621Z,10.17
2019-02-22T05:02:50.538Z,10.14
2019-02-22T05:06:55.445Z,10.15
2019-02-22T05:11:00.342Z,10.15
2019-02-22T05:15:12.403Z,10.17
2019-02-22T05:19:12.624Z,10.15
2019-02-22T05:23:17.559Z,10.17
2019-02-22T05:27:22.423Z,10.13
2019-02-22T05:31:27.337Z,10.10
2019-02-22T05:35:32.242Z,10.11
2019-02-22T05:39:37.149Z,10.11
2019-02-22T05:43:42.065Z,10.08
2019-02-22T05:47:46.969Z,10.05
2019-02-22T05:51:51.866Z,10.04
2019-02-22T05:55:56.785Z,10.03
2019-02-22T06:00:01.694Z,10.03
2019-02-22T06:04:06.602Z,10.05
2019-02-22T06:08:11.513Z,10.04
2019-02-22T06:12:18.505Z,10.07
2019-02-22T06:16:23.018Z,10.10
2019-02-22T06:20:27.931Z,10.24
2019-02-22T06:24:32.838Z,10.24
2019-02-22T06:28:37.749Z,10.19
2019-02-22T06:32:42.670Z,10.17
2019-02-22T06:36:47.573Z,10.15
2019-02-22T06:40:52.492Z,10.14
2019-02-22T06:44:57.420Z,10.17
2019-02-22T06:49:02.329Z,10.20
2019-02-22T06:53:07.231Z,10.21
2019-02-22T06:57:12.137Z,10.24
2019-02-22T07:01:17.050Z,10.25
2019-02-22T07:05:21.971Z,10.29
2019-02-22T07:09:26.896Z,10.34
2019-02-22T07:13:31.772Z,10.40
2019-02-22T07:17:36.749Z,10.43
2019-02-22T07:21:52.102Z,10.41
2019-02-22T07:25:49.361Z,10.38
2019-02-22T07:29:54.292Z,10.49
2019-02-22T07:33:59.176Z,10.59
2019-02-22T07:38:04.091Z,10.59
2019-02-22T07:42:09.006Z,10.58
2019-02-22T07:46:13.917Z,10.61
2019-02-22T07:50:18.829Z,10.61
2019-02-22T07:54:24.703Z,10.64
2019-02-22T07:58:29.610Z,10.67
2019-02-22T08:02:34.521Z,10.76
2019-02-22T08:06:42.350Z,10.83
2019-02-22T08:10:46.042Z,10.87
2019-02-22T08:14:50.945Z,10.92
2019-02-22T08:19:01.703Z,11.04
2019-02-22T08:23:02.483Z,11.18
2019-02-22T08:27:07.403Z,11.22
2019-02-22T08:31:12.309Z,11.25
2019-02-22T08:35:18.280Z,11.20
2019-02-22T08:39:23.187Z,11.29
2019-02-22T08:43:31.445Z,11.37
2019-02-22T08:47:35.584Z,11.49
2019-02-22T08:51:40.510Z,11.61
2019-02-22T08:55:45.394Z,11.70
2019-02-22T08:59:50.304Z,11.80
2019-02-22T09:03:55.193Z,11.87
2019-02-22T09:08:00.101Z,12.11
2019-02-22T09:12:05.013Z,12.41
2019-02-22T09:16:09.898Z,12.56
2019-02-22T09:20:14.791Z,12.65
2019-02-22T09:24:19.684Z,12.78
2019-02-22T09:28:24.585Z,12.77
2019-02-22T09:32:29.484Z,12.74
2019-02-22T09:36:34.379Z,12.65
2019-02-22T09:40:39.280Z,12.46
2019-02-22T09:44:44.180Z,12.40
2019-02-22T09:48:49.081Z,12.37
2019-02-22T09:52:53.977Z,12.12
2019-02-22T09:56:58.864Z,11.95
2019-02-22T10:01:03.771Z,11.96
2019-02-22T10:05:10.299Z,11.96
2019-02-22T10:09:15.196Z,12.02
2019-02-22T10:13:20.094Z,12.08
2019-02-22T10:17:24.984Z,12.09
2019-02-22T10:21:29.885Z,12.16
2019-02-22T10:25:34.793Z,12.31
2019-02-22T10:29:39.688Z,12.34
2019-02-22T10:33:44.587Z,12.33
2019-02-22T10:37:50.445Z,12.30
2019-02-22T10:41:55.340Z,12.25
2019-02-22T10:46:00.250Z,12.22
2019-02-22T10:50:06.788Z,12.17
2019-02-22T10:54:11.704Z,12.21
2019-02-22T10:58:16.571Z,12.34
2019-02-22T11:02:21.470Z,12.34
2019-02-22T11:06:26.375Z,12.18
2019-02-22T11:10:32.264Z,12.09
2019-02-22T11:14:37.170Z,11.95
2019-02-22T11:18:42.084Z,11.87
2019-02-22T11:22:47.049Z,11.83
2019-02-22T11:26:51.924Z,11.83
2019-02-22T11:30:56.821Z,11.59
2019-02-22T11:35:01.738Z,11.50
2019-02-22T11:39:07.102Z,11.44
2019-02-22T11:43:13.598Z,11.38
2019-02-22T11:47:18.495Z,11.30
2019-02-22T11:51:23.391Z,11.21
2019-02-22T11:55:28.364Z,11.11
2019-02-22T11:59:33.256Z,11.06
2019-02-22T12:03:38.152Z,10.95
2019-02-22T12:07:43.052Z,10.91
2019-02-22T12:11:47.958Z,10.94
2019-02-22T12:15:53.041Z,10.94
2019-02-22T12:19:58.179Z,10.96
2019-02-22T12:24:03.060Z,11.13
2019-02-22T12:28:07.966Z,11.26
2019-02-22T12:32:12.872Z,11.34
2019-02-22T12:36:18.950Z,11.37
2019-02-22T12:40:23.855Z,11.33
2019-02-22T12:44:28.744Z,11.36
2019-02-22T12:48:34.616Z,11.26
2019-02-22T12:52:39.512Z,11.28
2019-02-22T12:56:56.739Z,11.35
2019-02-22T13:00:51.005Z,11.33
2019-02-22T13:04:57.140Z,11.30
2019-02-22T13:09:02.039Z,11.26
2019-02-22T13:13:08.539Z,11.21
2019-02-22T13:17:13.443Z,11.23
2019-02-22T13:21:18.369Z,11.25
2019-02-22T13:25:23.266Z,11.20
2019-02-22T13:29:28.171Z,11.20
2019-02-22T13:33:33.072Z,11.15
2019-02-22T13:37:37.980Z,11.07
2019-02-22T13:41:42.896Z,11.01
2019-02-22T13:45:47.858Z,11.01
2019-02-22T13:49:52.768Z,11.00
2019-02-22T13:53:57.674Z,10.93
2019-02-22T13:58:02.582Z,10.97
2019-02-22T14:02:07.492Z,11.06
2019-02-22T14:06:12.382Z,11.24
2019-02-22T14:10:17.290Z,11.25
2019-02-22T14:14:22.192Z,11.32
2019-02-22T14:18:27.103Z,11.42
2019-02-22T14:22:32.011Z,11.38
2019-02-22T14:26:36.907Z,11.28
2019-02-22T14:30:41.806Z,11.30
2019-02-22T14:34:46.715Z,11.38
2019-02-22T14:38:51.672Z,11.20
2019-02-22T14:42:56.537Z,11.07
2019-02-22T14:47:01.429Z,11.09
2019-02-22T14:51:06.348Z,11.09
2019-02-22T14:55:11.253Z,11.10
2019-02-22T14:59:16.161Z,11.19
2019-02-22T15:03:21.057Z,11.11
2019-02-22T15:07:25.962Z,11.05
2019-02-22T15:11:31.328Z,11.00
2019-02-22T15:15:40.880Z,10.94
2019-02-22T15:19:45.782Z,10.96
2019-02-22T15:23:50.698Z,11.00
2019-02-22T15:27:55.576Z,10.99
2019-02-22T15:32:00.484Z,10.92
2019-02-22T15:36:06.331Z,10.92
2019-02-22T15:40:12.050Z,10.93
2019-02-22T15:44:17.008Z,10.95
2019-02-22T15:48:21.852Z,10.87
2019-02-22T15:52:26.760Z,10.85
2019-02-22T15:56:31.664Z,10.84
2019-02-22T16:00:36.831Z,10.79
2019-02-22T16:04:45.218Z,10.64
2019-02-22T16:08:49.967Z,10.55
2019-02-22T16:12:54.879Z,10.52
2019-02-22T16:16:59.789Z,10.48
2019-02-22T16:21:04.684Z,10.44
2019-02-22T16:25:18.977Z,10.43
2019-02-22T16:29:16.182Z,10.42
2019-02-22T16:33:21.095Z,10.41
2019-02-22T16:37:25.998Z,10.43
2019-02-22T16:41:30.911Z,10.36
2019-02-22T16:45:35.813Z,10.29
2019-02-22T16:49:40.712Z,10.31
2019-02-22T16:53:46.580Z,10.32
2019-02-22T16:57:51.491Z,10.34
2019-02-22T17:01:56.393Z,10.33
2019-02-22T17:06:01.299Z,10.28
2019-02-22T17:10:09.115Z,10.23
2019-02-22T17:14:14.016Z,10.17
2019-02-22T17:18:18.915Z,10.08
2019-02-22T17:22:23.822Z,9.90
2019-02-22T17:26:28.721Z,9.75
2019-02-22T17:30:33.610Z,9.70
2019-02-22T17:34:38.516Z,9.52
2019-02-22T17:38:43.408Z,9.36
2019-02-22T17:42:48.310Z,9.20
2019-02-22T17:46:57.698Z,9.10
2019-02-22T17:50:59.790Z,8.89
2019-02-22T17:55:06.424Z,8.73
2019-02-22T17:59:11.315Z,8.62
2019-02-22T18:03:16.216Z,8.49
2019-02-22T18:07:22.287Z,8.37
2019-02-22T18:11:27.182Z,8.28
2019-02-22T18:15:32.089Z,8.11
2019-02-22T18:19:36.984Z,7.86
2019-02-22T18:23:41.889Z,7.79
2019-02-22T18:27:46.784Z,7.64
2019-02-22T18:31:51.673Z,7.62
2019-02-22T18:35:56.583Z,7.58
2019-02-22T18:40:01.505Z,7.50
2019-02-22T18:44:07.363Z,7.41
2019-02-22T18:48:12.257Z,7.32
2019-02-22T18:52:17.197Z,7.15
2019-02-22T18:56:22.124Z,7.08
2019-02-22T19:00:27.035Z,6.96
2019-02-22T19:04:31.937Z,6.76
2019-02-22T19:08:36.950Z,6.77
2019-02-22T19:12:41.908Z,6.79
2019-02-22T19:16:46.823Z,6.75
2019-02-22T19:20:51.742Z,6.69
2019-02-22T19:24:56.652Z,6.58
2019-02-22T19:29:01.566Z,6.40
2019-02-22T19:33:06.457Z,6.21
2019-02-22T19:37:11.375Z,6.15
2019-02-22T19:41:16.281Z,6.07
2019-02-22T19:45:21.193Z,6.07
2019-02-22T19:49:26.106Z,6.06
2019-02-22T19:53:31.016Z,6.14
2019-02-22T19:57:35.935Z,6.05
2019-02-22T20:01:40.850Z,6.00
2019-02-22T20:05:45.760Z,6.01
2019-02-22T20:09:50.660Z,5.77
2019-02-22T20:13:55.566Z,5.53
2019-02-22T20:18:01.243Z,5.43
2019-02-22T20:22:06.217Z,5.43
2019-02-22T20:26:11.131Z,5.49
2019-02-22T20:30:19.663Z,5.61
2019-02-22T20:34:24.630Z,5.62
2019-02-22T20:38:30.565Z,5.51
2019-02-22T20:42:35.476Z,5.35
2019-02-22T20:46:40.394Z,5.12
2019-02-22T20:50:45.294Z,5.06
2019-02-22T20:54:50.212Z,5.04
2019-02-22T20:58:55.140Z,4.92
2019-02-22T21:03:00.036Z,4.84
2019-02-22T21:07:04.949Z,4.91
2019-02-22T21:11:09.849Z,4.83
2019-02-22T21:15:15.134Z,4.81
2019-02-22T21:19:20.039Z,4.87
2019-02-22T21:23:25.916Z,4.98
2019-02-22T21:27:30.823Z,4.91
2019-02-22T21:31:35.714Z,4.76
2019-02-22T21:35:40.621Z,4.71
2019-02-22T21:39:45.529Z,4.66
2019-02-22T21:43:50.435Z,4.70
2019-02-22T21:47:55.843Z,4.74
2019-02-22T21:52:00.824Z,4.73
2019-02-22T21:56:05.731Z,4.74
2019-02-22T22:00:19.628Z,4.85
2019-02-22T22:04:24.624Z,4.81
2019-02-22T22:08:29.512Z,4.61
2019-02-22T22:12:34.404Z,4.48
2019-02-22T22:16:39.316Z,4.41
2019-02-22T22:20:44.221Z,4.42
2019-02-22T22:24:49.139Z,4.39
2019-02-22T22:28:54.046Z,4.28
2019-02-22T22:32:58.948Z,4.29
2019-02-22T22:37:03.856Z,4.36
2019-02-22T22:41:08.765Z,4.42
2019-02-22T22:45:15.913Z,4.46
2019-02-22T22:49:20.788Z,4.51
2019-02-22T22:53:25.686Z,4.55
2019-02-22T22:57:30.594Z,4.69
2019-02-22T23:01:35.651Z,4.93
2019-02-22T23:05:41.618Z,5.15
2019-02-22T23:09:46.787Z,5.30
2019-02-22T23:13:51.675Z,5.33
2019-02-22T23:17:56.585Z,5.33
2019-02-22T23:22:01.497Z,5.37
2019-02-22T23:26:06.403Z,5.52
2019-02-22T23:30:11.466Z,5.55
2019-02-22T23:34:16.357Z,5.43
2019-02-22T23:38:21.273Z,5.39
2019-02-22T23:42:26.188Z,5.34
2019-02-22T23:46:31.089Z,5.36
2019-02-22T23:50:35.999Z,5.46
2019-02-22T23:54:40.891Z,5.55
2019-02-22T23:58:45.810Z,5.52
